Terminal Aerodrome Forecast
Issued by NWS Mt. Holly, NJ

Home | Current Version | Previous Version | Text Only | Print | Product List | Glossary On
Versions: 1 2 3 4 5 6 7 8 9 10 11 12 13 14 15 16 17 18 19
403
FTUS41 KPHI 231739
TAFACY
TAF
KACY 231739Z 2318/2418 24012KT P6SM BKN035
      TEMPO 2318/2320 BKN015
     FM232200 24011KT P6SM VCSH BKN050
      TEMPO 2323/2403 4SM -TSRA BKN030CB
     FM240300 22008KT P6SM BKN130 WS020/23040KT
     FM240900 21010KT 4SM +TSRA OVC030CB
     FM241200 30009KT P6SM BKN040=

USA.gov is the U.S. government's official web portal to all federal, state and local government web resources and services.